Time;durP1;ratioP1;P1;durP2;ratioP2;P2;SDS_P1;SDS_P2;PMS_P1;PMS_P2;Temp;Humidity;BMP_temperature;BMP_pressure;BME280_temperature;BME280_humidity;BME280_pressure;Samples;Min_cycle;Max_cycle;Signal;HPM_P1;HPM_P2
2023/04/27 00:01:56;;;;;;;16.60;4.60;;;;;;;3.92;67.97;100517.73;110225;1270;22152;-58
2023/04/27 00:04:27;;;;;;;15.30;4.00;;;;;;;3.87;68.07;100514.30;110245;1270;22187;-58
2023/04/27 00:06:58;;;;;;;20.30;4.30;;;;;;;3.81;68.20;100517.96;110258;1262;22315;-56
2023/04/27 00:09:29;;;;;;;16.30;4.30;;;;;;;3.75;68.29;100511.54;110271;1277;22221;-58
2023/04/27 00:12:00;;;;;;;21.40;4.90;;;;;;;3.71;68.41;100508.38;110216;1267;22193;-57
2023/04/27 00:14:31;;;;;;;15.20;5.10;;;;;;;3.68;68.47;100511.30;110225;1270;22409;-59
2023/04/27 00:17:01;;;;;;;17.50;4.40;;;;;;;3.64;68.57;100508.85;110247;1270;23531;-58
2023/04/27 00:19:32;;;;;;;19.20;4.70;;;;;;;3.61;68.62;100509.21;110224;1270;22181;-58
2023/04/27 00:22:03;;;;;;;17.30;4.00;;;;;;;3.58;68.73;100512.45;110246;1270;22160;-58
2023/04/27 00:24:34;;;;;;;19.70;4.60;;;;;;;3.56;68.80;100513.42;110238;1277;22343;-58
2023/04/27 00:27:05;;;;;;;16.40;4.30;;;;;;;3.54;68.76;100510.58;110272;1270;22167;-58
2023/04/27 00:29:36;;;;;;;16.80;4.30;;;;;;;3.50;68.94;100507.48;110227;1267;22865;-57
2023/04/27 00:32:07;;;;;;;14.10;4.70;;;;;;;3.46;68.97;100511.82;110263;1272;22262;-58
2023/04/27 00:34:38;;;;;;;17.90;5.70;;;;;;;3.43;69.08;100509.36;110263;1270;22253;-58
2023/04/27 00:37:09;;;;;;;23.70;5.80;;;;;;;3.40;69.13;100510.60;110266;1270;22205;-57
2023/04/27 00:39:40;;;;;;;14.80;3.90;;;;;;;3.36;69.22;100512.26;110267;1277;22203;-58
2023/04/27 00:42:14;;;;;;;15.50;4.30;;;;;;;3.32;69.31;100512.17;110261;1275;22277;-57
2023/04/27 00:44:44;;;;;;;13.90;4.20;;;;;;;3.28;69.44;100508.38;110253;1270;22229;-58
2023/04/27 00:47:16;;;;;;;18.80;4.20;;;;;;;3.27;69.52;100509.66;110267;1270;22301;-59
2023/04/27 00:49:47;;;;;;;17.70;4.30;;;;;;;3.23;69.50;100512.09;110242;1270;22999;-59
2023/04/27 00:52:18;;;;;;;17.20;4.50;;;;;;;3.21;69.60;100514.89;110236;1270;22215;-59
2023/04/27 00:54:52;;;;;;;16.00;3.80;;;;;;;3.18;69.66;100513.85;110237;1269;22347;-58
2023/04/27 00:57:23;;;;;;;16.50;3.60;;;;;;;3.15;69.71;100514.77;110280;1277;22180;-58
2023/04/27 00:59:54;;;;;;;16.50;4.60;;;;;;;3.13;69.73;100512.53;110251;1270;22815;-58
2023/04/27 01:02:25;;;;;;;12.90;3.80;;;;;;;3.10;69.87;100512.81;110239;1270;22144;-59
2023/04/27 01:04:57;;;;;;;16.90;3.60;;;;;;;3.10;69.98;100513.30;110216;1265;22175;-56
2023/04/27 01:07:28;;;;;;;15.80;3.80;;;;;;;3.07;69.99;100512.00;110278;1267;22191;-58
2023/04/27 01:09:59;;;;;;;12.60;4.00;;;;;;;3.07;70.06;100510.58;110262;1270;22178;-59
2023/04/27 01:12:30;;;;;;;16.80;4.30;;;;;;;3.07;69.94;100511.30;110242;1277;24130;-58
2023/04/27 01:15:01;;;;;;;15.50;4.50;;;;;;;3.05;69.93;100510.78;110257;1270;22142;-56
2023/04/27 01:17:32;;;;;;;18.00;4.30;;;;;;;3.04;70.12;100513.64;110232;1270;22295;-59
2023/04/27 01:20:06;;;;;;;18.10;4.50;;;;;;;3.03;70.11;100515.71;110300;1267;22261;-59
2023/04/27 01:22:37;;;;;;;23.70;4.50;;;;;;;3.02;70.23;100515.89;110262;1270;22269;-56
2023/04/27 01:25:09;;;;;;;15.90;3.90;;;;;;;3.00;70.22;100519.14;110248;1269;22847;-58
2023/04/27 01:27:40;;;;;;;18.80;4.30;;;;;;;3.00;70.24;100518.05;110268;1277;22274;-56
2023/04/27 01:30:11;;;;;;;18.10;4.30;;;;;;;2.97;70.30;100520.95;110271;1276;22180;-58
2023/04/27 01:32:42;;;;;;;17.20;4.40;;;;;;;2.95;70.37;100519.48;110272;1270;22552;-56
2023/04/27 01:35:13;;;;;;;17.10;4.10;;;;;;;2.95;70.38;100520.34;110255;1267;22186;-59
2023/04/27 01:37:44;;;;;;;13.40;3.50;;;;;;;2.93;70.31;100522.34;110253;1270;22235;-60
2023/04/27 01:40:16;;;;;;;16.40;4.10;;;;;;;2.91;70.32;100521.04;110270;1270;22231;-59
2023/04/27 01:42:46;;;;;;;19.30;3.80;;;;;;;2.88;70.41;100523.93;110267;1262;22302;-56
2023/04/27 01:45:17;;;;;;;13.80;3.70;;;;;;;2.84;70.48;100526.68;110280;1277;23437;-58
2023/04/27 01:47:50;;;;;;;15.70;4.20;;;;;;;2.81;70.49;100525.62;110209;1267;22294;-58
2023/04/27 01:50:21;;;;;;;14.30;3.80;;;;;;;2.80;70.51;100525.95;110285;1270;22376;-58
2023/04/27 01:52:52;;;;;;;19.70;5.50;;;;;;;2.78;70.49;100526.69;110250;1264;22135;-58
2023/04/27 01:55:23;;;;;;;21.50;4.00;;;;;;;2.75;70.47;100524.92;110261;1270;22211;-57
2023/04/27 01:57:54;;;;;;;15.10;3.90;;;;;;;2.71;70.57;100525.63;110240;1263;22360;-60
2023/04/27 02:00:25;;;;;;;14.80;3.90;;;;;;;2.69;70.66;100526.95;110245;1276;22909;-58
2023/04/27 02:02:59;;;;;;;18.60;3.60;;;;;;;2.66;70.65;100527.92;110233;1267;22651;-58
2023/04/27 02:05:30;;;;;;;15.00;3.40;;;;;;;2.63;70.75;100527.52;110251;1270;22284;-57
2023/04/27 02:08:01;;;;;;;15.30;3.40;;;;;;;2.61;70.66;100531.61;110281;1270;22233;-58
2023/04/27 02:10:31;;;;;;;17.80;4.30;;;;;;;2.60;70.72;100531.65;109293;1266;22779;-57
2023/04/27 02:13:03;;;;;;;21.50;5.00;;;;;;;2.59;70.74;100532.61;106235;1270;22536;-57
2023/04/27 02:15:34;;;;;;;24.50;5.50;;;;;;;2.55;70.71;100529.35;106298;1272;23170;-58
2023/04/27 02:18:05;;;;;;;18.40;4.40;;;;;;;2.52;70.77;100527.59;106253;1271;25330;-57
2023/04/27 02:20:36;;;;;;;16.10;4.50;;;;;;;2.47;70.73;100528.54;110274;1270;22379;-59
2023/04/27 02:23:08;;;;;;;17.00;4.30;;;;;;;2.40;70.75;100531.39;110267;1270;22220;-58
2023/04/27 02:25:41;;;;;;;15.20;4.20;;;;;;;2.35;70.91;100531.79;110275;1270;22396;-59
2023/04/27 02:28:12;;;;;;;19.00;4.80;;;;;;;2.31;70.93;100533.64;110293;1270;22184;-57
2023/04/27 02:30:43;;;;;;;20.50;5.40;;;;;;;2.28;70.84;100533.39;107889;1277;22523;-58
2023/04/27 02:33:14;;;;;;;17.50;4.60;;;;;;;2.24;70.88;100535.49;106267;1277;25403;-57
2023/04/27 02:35:45;;;;;;;18.30;5.00;;;;;;;2.20;71.11;100539.64;106258;1274;27130;-57
2023/04/27 02:38:16;;;;;;;16.80;4.40;;;;;;;2.17;71.05;100538.02;106169;1276;23998;-57
2023/04/27 02:40:47;;;;;;;21.10;5.00;;;;;;;2.14;71.18;100537.98;106288;1271;26111;-58
2023/04/27 02:43:18;;;;;;;19.00;5.10;;;;;;;2.09;71.21;100540.34;106272;1273;24512;-56
2023/04/27 02:45:49;;;;;;;20.50;5.10;;;;;;;2.05;71.35;100535.99;106211;1276;25375;-57
2023/04/27 02:48:20;;;;;;;18.10;4.90;;;;;;;2.00;71.48;100539.98;106308;1277;22651;-57
2023/04/27 02:50:51;;;;;;;20.30;5.50;;;;;;;1.95;71.43;100538.97;106233;1277;22521;-57
2023/04/27 02:53:22;;;;;;;29.20;7.40;;;;;;;1.88;71.50;100538.90;106240;1270;24278;-57
2023/04/27 02:55:53;;;;;;;24.30;6.60;;;;;;;1.83;71.64;100539.75;106203;1270;26716;-58
2023/04/27 02:58:23;;;;;;;25.60;6.30;;;;;;;1.79;71.69;100537.67;106278;1274;24314;-58
2023/04/27 03:00:57;;;;;;;23.10;6.70;;;;;;;1.75;71.76;100538.98;106255;1269;22637;-58
2023/04/27 03:03:28;;;;;;;23.10;7.00;;;;;;;1.72;71.97;100539.34;110290;1267;22165;-57
2023/04/27 03:05:59;;;;;;;21.30;6.40;;;;;;;1.72;72.04;100539.66;110253;1270;22160;-59
2023/04/27 03:08:30;;;;;;;26.20;6.00;;;;;;;1.70;72.02;100541.25;110253;1270;22140;-55
2023/04/27 03:11:01;;;;;;;22.40;6.40;;;;;;;1.68;72.05;100548.65;110275;1270;22206;-58
2023/04/27 03:13:37;;;;;;;24.10;6.90;;;;;;;1.64;71.99;100550.74;110258;1262;22210;-56
2023/04/27 03:16:10;;;;;;;25.20;6.70;;;;;;;1.60;72.03;100548.20;110287;1262;22831;-58
2023/04/27 03:18:41;;;;;;;21.10;5.40;;;;;;;1.57;72.27;100550.84;110274;1277;22783;-58
2023/04/27 03:21:15;;;;;;;20.80;5.40;;;;;;;1.55;72.32;100549.44;110251;1277;22191;-56
2023/04/27 03:23:46;;;;;;;24.80;6.80;;;;;;;1.53;72.46;100550.02;110269;1268;23057;-58
2023/04/27 03:26:17;;;;;;;29.60;6.90;;;;;;;1.53;72.46;100549.31;110311;1271;22246;-58
2023/04/27 03:28:48;;;;;;;29.50;6.60;;;;;;;1.54;72.45;100551.58;110294;1271;22231;-58
2023/04/27 03:31:19;;;;;;;23.10;6.20;;;;;;;1.55;72.43;100552.35;110240;1270;22395;-58
2023/04/27 03:33:50;;;;;;;22.70;6.70;;;;;;;1.54;72.51;100549.61;110245;1269;22504;-58
2023/04/27 03:36:20;;;;;;;25.30;6.10;;;;;;;1.51;72.41;100552.86;110243;1274;23255;-58
2023/04/27 03:38:51;;;;;;;26.90;7.80;;;;;;;1.48;72.46;100557.06;110248;1271;22151;-58
2023/04/27 03:41:22;;;;;;;26.40;9.20;;;;;;;1.47;72.70;100557.70;110208;1270;22297;-60
2023/04/27 03:43:53;;;;;;;27.70;10.50;;;;;;;1.47;72.72;100560.77;110240;1270;23108;-57
2023/04/27 03:46:23;;;;;;;29.60;10.70;;;;;;;1.47;72.76;100564.52;107716;1270;24294;-58
2023/04/27 03:48:55;;;;;;;25.70;8.90;;;;;;;1.46;72.72;100566.13;106265;1277;24212;-57
2023/04/27 03:51:25;;;;;;;29.10;10.20;;;;;;;1.42;72.69;100566.17;106182;1270;24348;-58
2023/04/27 03:53:56;;;;;;;27.90;8.50;;;;;;;1.39;72.87;100570.14;106274;1277;22555;-56
2023/04/27 03:56:27;;;;;;;26.20;9.00;;;;;;;1.37;73.10;100575.59;106267;1276;24345;-58
2023/04/27 03:58:58;;;;;;;28.40;9.20;;;;;;;1.33;73.25;100579.70;106169;1277;24347;-57
2023/04/27 04:01:29;;;;;;;25.70;8.30;;;;;;;1.29;73.52;100583.75;106290;1271;24268;-58
2023/04/27 04:04:00;;;;;;;20.90;7.80;;;;;;;1.25;73.70;100585.28;106230;1270;25492;-57
2023/04/27 04:06:31;;;;;;;24.70;7.00;;;;;;;1.21;73.81;100582.02;106159;1262;23030;-61
2023/04/27 04:09:03;;;;;;;27.40;10.00;;;;;;;1.18;74.05;100586.39;106114;1271;24254;-59
2023/04/27 04:11:34;;;;;;;27.20;8.80;;;;;;;1.16;74.16;100582.63;110271;1271;22211;-59
2023/04/27 04:14:05;;;;;;;26.30;8.80;;;;;;;1.17;74.51;100589.38;110286;1265;22386;-60
2023/04/27 04:16:36;;;;;;;26.90;8.90;;;;;;;1.20;74.68;100593.11;110261;1270;23161;-57
2023/04/27 04:19:07;;;;;;;31.50;9.20;;;;;;;1.24;74.81;100591.02;110267;1269;22528;-58
2023/04/27 04:21:38;;;;;;;30.70;9.70;;;;;;;1.29;74.98;100594.98;110235;1270;22184;-56
2023/04/27 04:24:09;;;;;;;25.00;8.50;;;;;;;1.34;75.21;100596.98;110281;1262;22260;-59
2023/04/27 04:26:40;;;;;;;32.30;10.20;;;;;;;1.40;75.29;100596.69;110264;1267;22383;-63
2023/04/27 04:29:11;;;;;;;28.60;9.20;;;;;;;1.48;75.34;100599.83;110246;1270;22147;-58
2023/04/27 04:31:42;;;;;;;24.50;8.20;;;;;;;1.55;75.35;100598.35;110251;1265;22156;-58
2023/04/27 04:34:13;;;;;;;27.30;10.20;;;;;;;1.62;75.36;100607.92;110238;1271;23077;-59
2023/04/27 04:36:44;;;;;;;29.70;9.40;;;;;;;1.72;75.67;100603.51;110275;1262;22230;-58
2023/04/27 04:39:15;;;;;;;30.00;9.30;;;;;;;1.81;75.92;100611.02;108457;1277;22531;-57
2023/04/27 04:41:48;;;;;;;25.50;8.90;;;;;;;1.90;76.14;100611.23;106138;1270;23995;-59
2023/04/27 04:44:19;;;;;;;29.50;8.70;;;;;;;2.00;76.39;100610.88;110275;1266;22220;-59
2023/04/27 04:46:50;;;;;;;30.70;9.90;;;;;;;2.09;76.75;100613.99;110235;1271;22206;-58
2023/04/27 04:49:21;;;;;;;30.50;9.30;;;;;;;2.18;76.85;100614.59;110236;1267;22241;-59
2023/04/27 04:51:52;;;;;;;26.10;8.40;;;;;;;2.28;76.92;100617.44;110171;1262;23733;-59
2023/04/27 04:54:23;;;;;;;29.20;9.20;;;;;;;2.39;77.10;100625.09;110232;1270;23476;-58
2023/04/27 04:56:54;;;;;;;23.30;8.00;;;;;;;2.50;77.07;100625.11;110228;1271;22216;-58
2023/04/27 04:59:25;;;;;;;26.30;8.90;;;;;;;2.61;77.08;100628.02;110228;1271;22280;-59
2023/04/27 05:01:55;;;;;;;23.10;6.90;;;;;;;2.72;77.25;100630.38;110249;1271;22161;-60
2023/04/27 05:04:26;;;;;;;28.10;8.80;;;;;;;2.83;77.22;100633.66;110234;1271;22173;-58
2023/04/27 05:06:58;;;;;;;21.60;7.30;;;;;;;2.94;77.38;100635.94;110258;1270;23334;-56
2023/04/27 05:09:29;;;;;;;23.50;7.60;;;;;;;3.03;77.36;100641.08;110255;1271;22322;-56
2023/04/27 05:12:01;;;;;;;21.80;7.30;;;;;;;3.13;77.57;100640.84;110240;1270;22784;-57
2023/04/27 05:14:32;;;;;;;25.10;7.70;;;;;;;3.20;77.68;100642.61;110243;1270;22319;-57
2023/04/27 05:17:03;;;;;;;25.50;7.20;;;;;;;3.29;77.82;100646.23;110224;1270;22341;-59
2023/04/27 05:19:34;;;;;;;24.70;8.00;;;;;;;3.40;78.01;100645.83;110233;1270;22338;-59
2023/04/27 05:22:05;;;;;;;28.50;7.70;;;;;;;3.49;77.68;100646.85;110249;1270;22895;-59
2023/04/27 05:24:36;;;;;;;29.20;9.00;;;;;;;3.58;77.61;100648.98;110282;1277;23012;-58
2023/04/27 05:27:06;;;;;;;25.00;7.50;;;;;;;3.67;77.51;100652.59;110276;1271;22297;-60
2023/04/27 05:29:37;;;;;;;21.00;6.90;;;;;;;3.75;77.14;100650.09;110337;1271;22165;-57
2023/04/27 05:32:09;;;;;;;30.80;7.40;;;;;;;3.83;77.30;100649.92;110248;1271;22265;-58
2023/04/27 05:34:42;;;;;;;25.10;7.00;;;;;;;3.92;77.36;100646.15;110269;1265;22207;-59
2023/04/27 05:37:13;;;;;;;19.90;6.20;;;;;;;4.00;77.24;100648.96;110246;1264;22234;-59
2023/04/27 05:39:44;;;;;;;20.30;6.50;;;;;;;4.09;77.43;100649.11;110263;1270;22601;-60
2023/04/27 05:42:15;;;;;;;28.40;6.10;;;;;;;4.19;77.33;100651.67;110246;1270;22315;-59
2023/04/27 05:44:45;;;;;;;16.90;4.90;;;;;;;4.29;76.70;100650.84;110272;1270;22140;-61
2023/04/27 05:47:16;;;;;;;23.40;4.60;;;;;;;4.41;76.17;100650.99;110252;1267;22185;-60
2023/04/27 05:49:51;;;;;;;14.90;3.70;;;;;;;4.51;75.79;100658.11;110251;1270;22981;-58
2023/04/27 05:52:28;;;;;;;10.90;3.70;;;;;;;4.62;75.62;100659.05;110274;1270;22127;-60
2023/04/27 05:54:59;;;;;;;17.20;4.20;;;;;;;4.74;75.16;100661.87;110261;1269;22274;-59
2023/04/27 05:57:30;;;;;;;16.80;2.90;;;;;;;4.83;74.96;100661.98;110263;1270;22808;-60
2023/04/27 06:00:01;;;;;;;15.00;3.00;;;;;;;4.90;74.64;100663.86;110258;1270;22218;-61
2023/04/27 06:02:32;;;;;;;15.60;2.80;;;;;;;4.99;74.48;100668.73;110256;1271;22298;-59
2023/04/27 06:05:03;;;;;;;13.30;2.60;;;;;;;5.06;74.25;100670.54;110173;1271;22141;-58
2023/04/27 06:07:34;;;;;;;15.30;3.00;;;;;;;5.13;73.24;100674.48;110204;1274;22269;-61
2023/04/27 06:10:06;;;;;;;15.60;3.00;;;;;;;5.19;73.25;100673.22;110196;1270;22495;-60
2023/04/27 06:12:38;;;;;;;11.50;2.80;;;;;;;5.26;73.16;100673.14;109176;1277;25444;-60
2023/04/27 06:15:10;;;;;;;18.40;4.00;;;;;;;5.33;72.94;100676.45;110201;1276;22174;-60
2023/04/27 06:17:42;;;;;;;20.50;3.30;;;;;;;5.40;72.51;100677.61;110177;1270;22290;-59
2023/04/27 06:20:14;;;;;;;10.70;2.60;;;;;;;5.48;72.44;100676.93;110241;1271;22590;-60
2023/04/27 06:22:46;;;;;;;15.00;2.70;;;;;;;5.55;71.95;100674.85;110260;1271;22261;-60
2023/04/27 06:25:17;;;;;;;14.00;3.40;;;;;;;5.64;71.71;100676.91;110283;1265;22231;-60
2023/04/27 06:27:47;;;;;;;11.70;2.30;;;;;;;5.73;71.42;100680.02;110295;1270;22338;-60
2023/04/27 06:30:18;;;;;;;11.00;3.00;;;;;;;5.82;71.13;100675.68;110226;1277;22224;-62
2023/04/27 06:32:50;;;;;;;13.50;2.70;;;;;;;5.89;70.90;100678.20;110229;1271;23011;-62
2023/04/27 06:35:22;;;;;;;12.40;2.20;;;;;;;5.96;70.78;100671.84;110263;1274;22196;-61
2023/04/27 06:37:57;;;;;;;15.20;2.80;;;;;;;6.04;70.70;100681.41;110320;1270;22215;-62
2023/04/27 06:40:28;;;;;;;12.60;2.50;;;;;;;6.11;70.67;100678.80;110207;1267;22136;-60
2023/04/27 06:42:59;;;;;;;19.40;3.20;;;;;;;6.20;70.55;100682.73;110258;1269;22211;-59
2023/04/27 06:45:30;;;;;;;17.90;3.70;;;;;;;6.30;70.73;100680.45;110274;1277;22172;-61
2023/04/27 06:48:00;;;;;;;19.30;3.90;;;;;;;6.39;70.11;100679.17;110258;1271;22409;-60
2023/04/27 06:50:32;;;;;;;13.60;2.70;;;;;;;6.43;69.64;100681.83;110271;1271;22514;-60
2023/04/27 06:53:02;;;;;;;14.60;2.90;;;;;;;6.46;69.33;100679.67;110110;1264;22248;-61
2023/04/27 06:55:33;;;;;;;13.40;1.90;;;;;;;6.49;69.37;100674.42;106711;1274;22546;-62
2023/04/27 06:58:05;;;;;;;9.50;2.40;;;;;;;6.55;69.28;100669.36;110274;1267;22183;-60
2023/04/27 07:00:35;;;;;;;13.50;2.50;;;;;;;6.59;69.16;100663.04;110248;1277;22193;-61
2023/04/27 07:03:06;;;;;;;13.30;2.60;;;;;;;6.65;68.89;100667.39;110259;1272;22321;-60
2023/04/27 07:05:37;;;;;;;11.70;2.70;;;;;;;6.72;68.70;100665.53;110238;1272;22173;-61
2023/04/27 07:08:08;;;;;;;13.40;2.60;;;;;;;6.79;68.45;100671.42;110212;1272;22158;-59
2023/04/27 07:10:40;;;;;;;17.40;3.50;;;;;;;6.85;68.42;100667.34;110251;1268;22917;-61
2023/04/27 07:13:10;;;;;;;14.70;2.80;;;;;;;6.95;68.38;100668.52;110254;1272;22136;-61
2023/04/27 07:15:41;;;;;;;14.50;2.80;;;;;;;7.11;68.43;100664.69;110273;1277;22146;-61
2023/04/27 07:18:12;;;;;;;12.70;2.50;;;;;;;7.28;68.26;100667.39;110265;1266;22959;-61
2023/04/27 07:20:43;;;;;;;13.90;1.80;;;;;;;7.46;68.05;100665.52;110238;1268;22255;-61
2023/04/27 07:23:15;;;;;;;11.30;2.20;;;;;;;7.59;67.22;100664.13;110259;1274;22235;-62
2023/04/27 07:25:46;;;;;;;10.80;1.80;;;;;;;7.71;67.18;100666.34;110195;1265;22216;-59
2023/04/27 07:28:17;;;;;;;11.00;1.80;;;;;;;7.80;67.24;100667.13;110213;1271;22899;-60
2023/04/27 07:30:48;;;;;;;7.80;1.50;;;;;;;7.87;66.04;100666.02;110215;1270;22377;-60
2023/04/27 07:33:19;;;;;;;9.60;2.10;;;;;;;7.91;66.31;100670.17;110249;1277;22182;-62
2023/04/27 07:35:50;;;;;;;10.30;2.00;;;;;;;7.97;66.21;100673.63;110189;1277;22597;-61
2023/04/27 07:38:22;;;;;;;11.80;2.70;;;;;;;8.00;65.89;100670.89;110252;1267;23043;-61
2023/04/27 07:40:53;;;;;;;11.50;1.60;;;;;;;8.02;65.38;100666.67;110212;1265;22195;-62
2023/04/27 07:43:24;;;;;;;11.20;1.70;;;;;;;8.03;65.31;100673.78;110257;1271;22413;-61
2023/04/27 07:45:57;;;;;;;7.40;1.30;;;;;;;8.04;65.39;100668.76;110228;1270;22234;-61
2023/04/27 07:48:29;;;;;;;8.00;1.30;;;;;;;8.09;65.47;100669.36;110214;1277;22995;-62
2023/04/27 07:51:00;;;;;;;5.80;1.20;;;;;;;8.14;64.71;100668.29;110225;1274;22862;-61
2023/04/27 07:53:34;;;;;;;8.10;1.40;;;;;;;8.19;64.08;100672.02;110243;1265;22410;-61
2023/04/27 07:56:08;;;;;;;6.50;1.10;;;;;;;8.25;64.22;100664.99;110270;1272;22138;-60
2023/04/27 07:58:40;;;;;;;8.00;1.30;;;;;;;8.30;64.03;100669.52;110192;1274;23166;-61
2023/04/27 08:01:11;;;;;;;7.10;1.20;;;;;;;8.35;64.11;100672.57;110185;1271;22884;-59
2023/04/27 08:03:42;;;;;;;8.60;0.90;;;;;;;8.46;62.22;100670.98;110249;1271;22161;-61
2023/04/27 08:06:12;;;;;;;7.00;0.90;;;;;;;8.53;62.43;100674.45;110229;1277;22174;-61
2023/04/27 08:08:43;;;;;;;6.30;0.80;;;;;;;8.61;61.68;100678.99;110306;1265;22987;-58
2023/04/27 08:11:14;;;;;;;8.30;1.40;;;;;;;8.67;61.45;100676.61;110228;1271;22854;-61
2023/04/27 08:13:45;;;;;;;12.80;2.00;;;;;;;8.68;60.00;100679.31;110249;1271;22234;-59
2023/04/27 08:16:16;;;;;;;4.50;1.10;;;;;;;8.71;60.74;100678.38;110228;1274;22978;-63
2023/04/27 08:18:47;;;;;;;6.70;0.90;;;;;;;8.75;60.78;100677.83;110215;1269;25205;-60
2023/04/27 08:21:18;;;;;;;5.70;1.10;;;;;;;8.84;60.92;100680.71;110270;1277;22288;-61
2023/04/27 08:23:49;;;;;;;7.90;1.10;;;;;;;8.91;60.34;100678.78;110243;1262;22196;-62
2023/04/27 08:26:20;;;;;;;8.40;1.00;;;;;;;8.96;59.92;100687.66;110219;1272;22452;-63
2023/04/27 08:28:50;;;;;;;8.50;1.00;;;;;;;8.98;59.17;100689.35;107371;1271;22559;-60
2023/04/27 08:31:22;;;;;;;6.60;1.00;;;;;;;8.97;59.45;100690.31;106612;1274;26754;-60
2023/04/27 08:33:53;;;;;;;9.40;1.00;;;;;;;8.99;59.77;100689.36;110228;1269;23247;-62
2023/04/27 08:36:25;;;;;;;6.60;1.00;;;;;;;9.02;59.33;100685.53;110297;1274;22343;-61
2023/04/27 08:38:56;;;;;;;6.40;1.20;;;;;;;9.01;58.59;100685.34;110232;1272;22222;-61
2023/04/27 08:41:27;;;;;;;8.80;1.50;;;;;;;9.06;59.55;100688.23;110306;1269;22268;-61
2023/04/27 08:43:58;;;;;;;7.90;1.20;;;;;;;9.11;59.11;100691.39;110187;1276;22913;-58
2023/04/27 08:46:30;;;;;;;10.50;1.20;;;;;;;9.11;58.24;100689.70;110162;1271;22192;-59
2023/04/27 08:49:01;;;;;;;8.20;1.10;;;;;;;9.16;58.36;100688.16;110229;1262;23063;-61
2023/04/27 08:51:33;;;;;;;8.60;1.10;;;;;;;9.25;58.43;100693.61;110220;1277;22385;-61
2023/04/27 08:54:04;;;;;;;7.60;0.90;;;;;;;9.37;58.22;100693.03;110226;1271;22208;-61
2023/04/27 08:56:36;;;;;;;11.20;1.10;;;;;;;9.45;56.67;100692.63;110236;1268;22332;-60
2023/04/27 08:59:16;;;;;;;9.20;1.40;;;;;;;9.53;57.46;100700.73;110221;1274;22554;-58
2023/04/27 09:01:47;;;;;;;11.60;1.70;;;;;;;9.63;57.33;100694.09;110155;1265;22238;-61
2023/04/27 09:04:18;;;;;;;10.10;1.30;;;;;;;9.73;57.23;100692.64;110224;1270;23188;-61
2023/04/27 09:06:49;;;;;;;6.40;1.20;;;;;;;9.75;56.80;100693.18;110249;1269;22349;-62
2023/04/27 09:09:26;;;;;;;5.50;1.40;;;;;;;9.74;56.65;100693.80;110244;1277;22205;-61
2023/04/27 09:11:57;;;;;;;8.00;1.90;;;;;;;9.77;56.57;100689.17;110192;1274;22204;-62
2023/04/27 09:14:29;;;;;;;11.70;1.90;;;;;;;9.78;55.75;100694.11;110241;1271;22235;-62
2023/04/27 09:17:00;;;;;;;13.50;1.80;;;;;;;9.72;55.29;100699.92;110220;1274;22980;-61
2023/04/27 09:19:31;;;;;;;12.50;2.20;;;;;;;9.62;55.45;100690.64;110164;1270;22321;-61
2023/04/27 09:22:07;;;;;;;11.00;1.60;;;;;;;9.55;55.90;100694.10;110200;1269;22257;-62
2023/04/27 09:24:38;;;;;;;10.10;2.30;;;;;;;9.54;55.97;100691.30;110240;1274;22147;-61
2023/04/27 09:27:10;;;;;;;9.80;1.70;;;;;;;9.53;56.19;100686.88;108460;1268;22523;-60
2023/04/27 09:29:41;;;;;;;11.70;1.50;;;;;;;9.57;55.80;100685.24;110207;1270;22490;-60
2023/04/27 09:32:19;;;;;;;12.90;1.90;;;;;;;9.57;55.37;100682.65;110219;1272;22177;-63
2023/04/27 09:34:50;;;;;;;13.70;1.70;;;;;;;9.54;55.70;100681.64;110242;1274;22839;-62
2023/04/27 09:37:22;;;;;;;11.00;1.70;;;;;;;9.56;55.29;100681.75;110241;1272;22247;-60
2023/04/27 09:39:53;;;;;;;11.90;2.40;;;;;;;9.58;55.05;100682.93;110221;1269;22473;-60
2023/04/27 09:42:24;;;;;;;10.80;1.80;;;;;;;9.61;54.82;100678.17;110214;1277;22203;-61
2023/04/27 09:44:56;;;;;;;12.50;1.70;;;;;;;9.66;54.92;100680.83;110196;1268;22262;-60
2023/04/27 09:47:27;;;;;;;12.40;1.60;;;;;;;9.71;54.21;100681.09;110290;1272;22173;-61
2023/04/27 09:50:01;;;;;;;8.50;1.40;;;;;;;9.75;54.42;100680.82;110223;1272;22156;-62
2023/04/27 09:52:32;;;;;;;7.40;1.50;;;;;;;9.80;54.12;100681.75;110183;1273;22295;-61
2023/04/27 09:55:06;;;;;;;9.80;1.40;;;;;;;9.84;54.09;100678.25;110246;1269;22271;-61
2023/04/27 09:57:43;;;;;;;10.20;1.90;;;;;;;9.87;53.61;100683.42;110255;1277;22326;-60
2023/04/27 10:00:26;;;;;;;7.20;1.60;;;;;;;9.90;54.26;100680.92;110253;1277;22219;-62
2023/04/27 10:03:11;;;;;;;5.50;1.20;;;;;;;9.98;53.78;100676.05;110284;1272;23010;-62
2023/04/27 10:06:10;;;;;;;7.80;1.10;;;;;;;10.01;53.00;100679.64;110232;1272;22492;-61
2023/04/27 10:08:41;;;;;;;8.50;1.40;;;;;;;10.10;53.45;100672.63;110232;1265;22247;-60
2023/04/27 10:11:21;;;;;;;7.40;1.40;;;;;;;10.23;52.46;100669.75;110193;1274;22202;-60
2023/04/27 10:13:54;;;;;;;;;;;;;;;10.30;51.97;100672.95;110296;1273;22428;-62
2023/04/27 10:16:25;;;;;;;8.60;1.60;;;;;;;10.32;52.46;100672.95;110213;1266;22250;-61
2023/04/27 10:18:57;;;;;;;5.70;1.20;;;;;;;10.39;52.41;100675.58;110216;1262;22345;-61
2023/04/27 10:21:29;;;;;;;5.70;1.10;;;;;;;10.38;50.71;100677.52;110264;1276;22364;-62
2023/04/27 10:24:08;;;;;;;7.00;1.20;;;;;;;10.31;50.98;100673.78;110219;1270;23077;-60
2023/04/27 10:26:47;;;;;;;4.60;1.00;;;;;;;10.27;50.93;100676.20;110235;1274;22903;-61
2023/04/27 10:29:19;;;;;;;9.80;1.20;;;;;;;10.23;51.13;100676.15;110179;1268;22176;-61
2023/04/27 10:31:50;;;;;;;5.60;1.10;;;;;;;10.22;51.22;100677.34;110166;1269;22144;-62
2023/04/27 10:34:21;;;;;;;5.00;1.20;;;;;;;10.21;50.33;100675.09;110214;1267;23096;-61
2023/04/27 10:37:04;;;;;;;6.80;1.00;;;;;;;10.22;50.29;100671.65;110203;1270;22396;-62
2023/04/27 10:39:38;;;;;;;7.10;1.10;;;;;;;10.24;50.01;100666.83;110231;1277;22490;-60
2023/04/27 10:42:10;;;;;;;9.50;1.50;;;;;;;10.26;50.10;100665.81;110207;1276;22215;-61
2023/04/27 10:44:41;;;;;;;6.10;1.50;;;;;;;10.28;50.35;100668.02;110221;1267;23260;-61
2023/04/27 10:47:19;;;;;;;6.70;1.00;;;;;;;10.32;50.05;100668.73;110179;1269;22190;-61
2023/04/27 10:49:52;;;;;;;10.00;2.10;;;;;;;10.35;50.07;100667.23;110242;1274;22200;-60
2023/04/27 10:52:23;;;;;;;8.80;1.70;;;;;;;10.39;50.36;100670.15;110238;1273;22943;-62
2023/04/27 10:54:54;;;;;;;6.10;1.40;;;;;;;10.46;50.30;100671.00;110209;1262;23100;-61
2023/04/27 10:57:26;;;;;;;7.30;1.40;;;;;;;10.57;50.58;100663.45;110225;1277;22659;-61
2023/04/27 10:59:57;;;;;;;6.30;1.40;;;;;;;10.68;50.05;100664.69;110210;1274;22206;-60
2023/04/27 11:02:29;;;;;;;9.00;1.40;;;;;;;10.84;49.18;100665.35;110240;1274;22148;-61
2023/04/27 11:05:01;;;;;;;8.60;1.50;;;;;;;11.00;48.55;100665.48;110240;1271;22998;-60
2023/04/27 11:07:32;;;;;;;7.10;1.60;;;;;;;11.06;48.38;100665.23;110217;1275;22155;-61
2023/04/27 11:10:03;;;;;;;11.80;2.50;;;;;;;11.05;48.29;100668.41;110189;1269;22171;-61
2023/04/27 11:12:36;;;;;;;10.90;1.90;;;;;;;11.00;48.98;100671.27;110212;1264;22282;-62
2023/04/27 11:15:15;;;;;;;11.40;1.90;;;;;;;10.90;48.59;100671.64;110224;1277;22168;-61
2023/04/27 11:17:46;;;;;;;9.10;2.00;;;;;;;10.80;48.83;100674.80;110193;1273;22204;-61
2023/04/27 11:20:25;;;;;;;6.50;1.80;;;;;;;10.73;48.29;100680.90;110204;1273;22344;-60
2023/04/27 11:22:56;;;;;;;7.00;2.00;;;;;;;10.59;48.78;100681.43;110170;1264;22145;-61
2023/04/27 11:25:30;;;;;;;9.10;1.30;;;;;;;10.49;48.35;100689.45;106049;1267;5413822;-61
2023/04/27 11:28:01;;;;;;;10.50;1.80;;;;;;;10.32;48.44;100690.41;110238;1269;22410;-61
2023/04/27 11:30:32;;;;;;;9.50;2.60;;;;;;;10.19;48.76;100692.34;110260;1277;22322;-61
2023/04/27 11:33:09;;;;;;;6.40;1.70;;;;;;;10.12;48.56;100693.22;110199;1272;22288;-61
2023/04/27 11:35:41;;;;;;;5.80;1.30;;;;;;;10.05;48.26;100692.95;110207;1275;22302;-60
2023/04/27 11:38:19;;;;;;;7.90;1.50;;;;;;;10.00;47.94;100694.25;110239;1275;22849;-61
2023/04/27 11:41:01;;;;;;;6.70;1.50;;;;;;;9.98;47.89;100698.25;110263;1273;22260;-59